ENXU weather

Jotun B Platform
Norway

Public forecast

Using degrees Celsius for public forecast. Weather courtesy of forecast.io.

METAR (pilot weather report)

Closest report is Ula Platform, 25.2 nm (46.6 km) SE. Retrieved 2019/05/21 16:20 UTC (0 seconds ago):

ENLA 211620Z AUTO 29022KT 9999NDV BKN006/// 11/09 Q1013 W///S3

TAF (pilot weather forecast)

Closest forecast is Oseberg A Platform, 64.0 nm (118.5 km) NNE. Retrieved 2019/05/21 15:57 UTC (13 minutes ago):

TAF TAF ENOA 211400Z 2115/2215 35012KT 9000 FEW006 PROB30 TEMPO 2117/2204 0100 FG VV001 TEMPO 2204/2215 2000 SHRA BR BKN004 SCT020CB BECMG 2210/2212 VRB08KT